Costa Luminosa — ICGU — position and weather

sailwx.info

Track history (hours):
 
Tides and Currents Weather Stations Pressure Air Temp Water Temp Dewpoint Dewpoint Depression Visibility Wind Speed Wind Dir Waves Ship Positions

Costa Luminosa

Last reported at 2018-Jul-22 01:33 UTC. Time now 2018-Jul-22 06:51 UTC.
Position N 43°30' E 014°20'.

Length 294 m; draft 8.1 m.

Type: Passenger vessel. MMSI: 247257900.

Date/timePositionNaut miles runAvg speedWind from/ knotsBaromVisibWave heightAir tempDewpointWater temp
2018-Jul-22 01:33N 43°30' E 014°20'219.1
2018-Jul-22 01:26N 43°32' E 014°18'819.0
2018-Jul-22 01:00N 43°39' E 014°11'918.8
2018-Jul-22 00:30N 43°45' E 014°01'918.9
2018-Jul-22 00:00N 43°52' E 013°52'1019.0
2018-Jul-21 23:29N 43°58' E 013°41'919.2
2018-Jul-21 23:00N 44°03' E 013°31'1019.1
2018-Jul-21 22:30N 44°08' E 013°20'918.4
2018-Jul-21 22:00N 44°14' E 013°10'918.7
2018-Jul-21 21:30N 44°23' E 013°06'918.5
2018-Jul-21 21:00N 44°32' E 013°03'918.4
2018-Jul-21 20:30N 44°41' E 012°58'918.2
2018-Jul-21 20:00N 44°49' E 012°54'918.4
2018-Jul-21 19:30N 44°58' E 012°48'918.7
2018-Jul-21 19:00N 45°06' E 012°42'918.0
2018-Jul-21 18:30N 45°11' E 012°32'917.3
2018-Jul-21 18:00N 45°20' E 012°30'611.6
2018-Jul-21 17:30N 45°25' E 012°26'3 5.6
2018-Jul-21 17:00N 45°25' E 012°22'3 5.1
2018-Jul-21 16:30N 45°26' E 012°19'0 0.6
2018-Jul-21 15:58N 45°26' E 012°19'0 0.0
2018-Jul-21 15:28N 45°26' E 012°19'0 0.0
2018-Jul-21 14:55N 45°26' E 012°19'0 0.0
2018-Jul-21 14:28N 45°26' E 012°19'0 0.0
2018-Jul-21 13:55N 45°26' E 012°19'0 0.0
2018-Jul-21 13:19N 45°26' E 012°19'0 0.0
2018-Jul-21 12:58N 45°26' E 012°19'0 0.0
2018-Jul-21 12:19N 45°26' E 012°19'0 0.0
2018-Jul-21 11:55N 45°26' E 012°19'0 0.0
2018-Jul-21 11:25N 45°26' E 012°19'0 0.0
2018-Jul-21 10:55N 45°26' E 012°19'0 0.0
2018-Jul-21 09:49N 45°26' E 012°19'0 0.0
2018-Jul-21 09:01N 45°26' E 012°19'0 0.0
2018-Jul-21 08:58N 45°26' E 012°19'0 0.0
2018-Jul-21 08:28N 45°26' E 012°19'0 0.0
2018-Jul-21 07:52N 45°26' E 012°19'0 0.0
2018-Jul-21 07:22N 45°26' E 012°19'0 0.0
2018-Jul-21 06:51N 45°26' E 012°19'1 3.0
2018-Jul-21 06:27N 45°26' E 012°20'2 4.5
2018-Jul-21 06:00N 45°26' E 012°23'4 7.4
2018-Jul-21 05:30N 45°24' E 012°28'610.5
2018-Jul-21 04:57N 45°19' E 012°32'714.9
2018-Jul-21 04:30N 45°14' E 012°37'815.9
2018-Jul-21 04:00N 45°09' E 012°46'815.9
2018-Jul-21 03:30N 45°02' E 012°52'816.5
2018-Jul-21 03:01N 44°55' E 012°57'816.7
2018-Jul-21 02:31N 44°47' E 013°01'916.8
2018-Jul-21 02:00N 44°39' E 013°04'816.6
2018-Jul-21 01:30N 44°31' E 013°08'916.4
2018-Jul-21 00:56N 44°22' E 013°12'1617.3
2018-Jul-20 23:59N 44°11' E 013°28'918.9
2018-Jul-20 23:30N 44°05' E 013°38'1218.8
2018-Jul-20 22:53N 43°58' E 013°51'718.7
2018-Jul-20 22:30N 43°54' E 013°60'918.9
2018-Jul-20 22:01N 43°49' E 014°11'918.8
2018-Jul-20 21:30N 43°43' E 014°21'1019.3
2018-Jul-20 21:00N 43°36' E 014°30'1119.2
2018-Jul-20 20:26N 43°28' E 014°40'58312.1
2018-Jul-18 20:02N 36°35' E 023°37'119.4
2018-Jul-18 20:01N 36°35' E 023°38'1019.4
2018-Jul-18 19:31N 36°39' E 023°49'5919.2
2018-Jul-18 16:28N 37°12' E 024°50'919.7
2018-Jul-18 16:01N 37°17' E 024°59'1019.8
2018-Jul-18 15:31N 37°24' E 025°08'816.4
2018-Jul-18 15:00N 37°28' E 025°17'2 2.8
2018-Jul-18 14:26N 37°28' E 025°19'0 0.0
2018-Jul-18 13:29N 37°28' E 025°19'0 0.0
2018-Jul-18 12:59N 37°28' E 025°19'0 0.0
2018-Jul-18 12:29N 37°28' E 025°19'0 0.0
2018-Jul-18 11:56N 37°28' E 025°19'0 0.0
2018-Jul-18 11:29N 37°28' E 025°19'0 0.0
2018-Jul-18 10:29N 37°28' E 025°19'0 0.0
2018-Jul-18 07:29N 37°28' E 025°19'0 0.0
2018-Jul-18 06:59N 37°28' E 025°19'0 0.0
2018-Jul-18 06:29N 37°28' E 025°19'0 0.0
2018-Jul-18 05:59N 37°28' E 025°19'0 0.0
2018-Jul-18 05:29N 37°28' E 025°19'0 0.0
2018-Jul-18 05:00N 37°28' E 025°19'0 0.1
2018-Jul-18 04:30N 37°28' E 025°19'3 6.4
2018-Jul-18 04:00N 37°28' E 025°15'611.4
2018-Jul-18 03:30N 37°26' E 025°08'712.9
2018-Jul-18 02:58N 37°20' E 025°05'613.0
2018-Jul-18 02:30N 37°14' E 025°02'713.3
2018-Jul-18 02:00N 37°08' E 024°59'2212.5
2018-Jul-18 00:15N 36°47' E 024°51'312.1
2018-Jul-18 00:00N 36°44' E 024°49'712.4
2018-Jul-17 23:25N 36°40' E 024°42'812.1
2018-Jul-17 22:46N 36°32' E 024°41'413.1
2018-Jul-17 22:29N 36°30' E 024°37'613.0
2018-Jul-17 22:00N 36°27' E 024°31'612.2
2018-Jul-17 21:30N 36°21' E 024°32'612.0
2018-Jul-17 21:00N 36°17' E 024°37'611.6
2018-Jul-17 20:30N 36°16' E 024°44'33 3.2
2018-Jul-17 10:14N 36°26' E 025°23'417.4
2018-Jul-17 09:59N 36°29' E 025°19'2617.8
2018-Jul-17 08:31N 36°27' E 024°47'016.6
2018-Jul-17 08:30N 36°27' E 024°46'1816.4
2018-Jul-17 07:25N 36°26' E 024°24'716.5
2018-Jul-17 07:00N 36°26' E 024°16'816.6
2018-Jul-17 06:30N 36°25' E 024°06'816.9
2018-Jul-17 06:00N 36°25' E 023°55'58811.6
2018-Jul-15 03:12N 43°14' E 014°47'1619.7
2018-Jul-15 02:22N 43°26' E 014°31'719.2
2018-Jul-15 02:01N 43°30' E 014°24'1219.3
2018-Jul-15 01:23N 43°38' E 014°11'819.7
2018-Jul-15 00:59N 43°44' E 014°04'1019.8
2018-Jul-15 00:30N 43°51' E 013°54'1719.2
2018-Jul-14 23:36N 44°01' E 013°35'220.1
2018-Jul-14 23:29N 44°02' E 013°32'919.6
2018-Jul-14 23:00N 44°08' E 013°21'918.7
2018-Jul-14 22:30N 44°14' E 013°11'1019.3
2018-Jul-14 22:00N 44°23' E 013°07'1020.2
2018-Jul-14 21:30N 44°32' E 013°03'1019.7
2018-Jul-14 21:00N 44°42' E 012°58'919.0
2018-Jul-14 20:30N 44°50' E 012°53'1019.1
2018-Jul-14 20:00N 44°59' E 012°47'919.0
2018-Jul-14 19:30N 45°07' E 012°40'918.5
2018-Jul-14 19:00N 45°13' E 012°30'815.6
2018-Jul-14 18:30N 45°19' E 012°23'5 9.6
2018-Jul-14 17:59N 45°21' E 012°16'4 8.1
2018-Jul-14 17:30N 45°25' E 012°16'2 4.6
2018-Jul-14 17:00N 45°27' E 012°16'1 1.3
2018-Jul-14 16:28N 45°27' E 012°15'0 0.0
2018-Jul-14 15:52N 45°27' E 012°15'0 0.0
2018-Jul-14 15:28N 45°27' E 012°15'0 0.0
2018-Jul-14 14:58N 45°27' E 012°15'0 0.0
2018-Jul-14 14:28N 45°27' E 012°15'0 0.0
2018-Jul-14 13:28N 45°27' E 012°15'0 0.0
2018-Jul-14 12:58N 45°27' E 012°15'0 0.0
2018-Jul-14 12:22N 45°27' E 012°15'0 0.0
2018-Jul-14 11:55N 45°27' E 012°15'0 0.0
2018-Jul-14 11:22N 45°27' E 012°15'0 0.0
2018-Jul-14 10:58N 45°27' E 012°15'0 0.0
2018-Jul-14 10:28N 45°27' E 012°15'0 0.0
2018-Jul-14 09:58N 45°27' E 012°15'0 0.0
2018-Jul-14 09:28N 45°27' E 012°15'0 0.0
2018-Jul-14 08:55N 45°27' E 012°15'0 0.0
2018-Jul-14 08:25N 45°27' E 012°15'0 0.0
2018-Jul-14 07:58N 45°27' E 012°15'0 0.0
2018-Jul-14 07:25N 45°27' E 012°15'0 0.0
2018-Jul-14 06:55N 45°27' E 012°15'0 0.0
2018-Jul-14 06:28N 45°27' E 012°15'0 0.0
2018-Jul-14 05:58N 45°27' E 012°15'0 0.0
2018-Jul-14 05:22N 45°27' E 012°15'1 1.9
2018-Jul-14 05:00N 45°27' E 012°15'2 4.0
2018-Jul-14 04:30N 45°25' E 012°16'4 7.9
2018-Jul-14 04:00N 45°21' E 012°16'4 8.8
2018-Jul-14 03:30N 45°20' E 012°22'713.4
2018-Jul-14 03:00N 45°17' E 012°31'816.1
2018-Jul-14 02:30N 45°12' E 012°39'815.9
2018-Jul-14 02:01N 45°07' E 012°48'815.6
2018-Jul-14 01:30N 45°01' E 012°54'918.3
2018-Jul-14 01:01N 44°52' E 012°58'918.4
2018-Jul-14 00:30N 44°43' E 013°03'918.0
2018-Jul-14 00:00N 44°35' E 013°07'918.2
2018-Jul-13 23:31N 44°26' E 013°11'918.3
2018-Jul-13 23:01N 44°18' E 013°15'918.3
2018-Jul-13 22:30N 44°12' E 013°26'918.3
2018-Jul-13 22:00N 44°07' E 013°36'918.2
2018-Jul-13 21:29N 44°01' E 013°46'918.2
2018-Jul-13 21:00N 43°56' E 013°56'918.3
2018-Jul-13 20:30N 43°51' E 014°06'918.5
2018-Jul-13 20:00N 43°45' E 014°17'  
Track history (hours):
 
Tides and Currents Weather Stations Pressure Air Temp Water Temp Dewpoint Dewpoint Depression Visibility Wind Speed Wind Dir Waves Ship Positions

Costa Luminosa

Last reported at 2018-Jul-22 01:33 UTC. Time now 2018-Jul-22 06:51 UTC.
Position N 43°30' E 014°20'.

Length 294 m; draft 8.1 m.

Type: Passenger vessel. MMSI: 247257900.

Date/timePositionNaut miles runAvg speedWind from/ knotsBaromVisibWave heightAir tempDewpointWater temp
2018-Jul-22 01:33N 43°30' E 014°20'219.1
2018-Jul-22 01:26N 43°32' E 014°18'819.0
2018-Jul-22 01:00N 43°39' E 014°11'918.8
2018-Jul-22 00:30N 43°45' E 014°01'918.9
2018-Jul-22 00:00N 43°52' E 013°52'1019.0
2018-Jul-21 23:29N 43°58' E 013°41'919.2
2018-Jul-21 23:00N 44°03' E 013°31'1019.1
2018-Jul-21 22:30N 44°08' E 013°20'918.4
2018-Jul-21 22:00N 44°14' E 013°10'918.7
2018-Jul-21 21:30N 44°23' E 013°06'918.5
2018-Jul-21 21:00N 44°32' E 013°03'918.4
2018-Jul-21 20:30N 44°41' E 012°58'918.2
2018-Jul-21 20:00N 44°49' E 012°54'918.4
2018-Jul-21 19:30N 44°58' E 012°48'918.7
2018-Jul-21 19:00N 45°06' E 012°42'918.0
2018-Jul-21 18:30N 45°11' E 012°32'917.3
2018-Jul-21 18:00N 45°20' E 012°30'611.6
2018-Jul-21 17:30N 45°25' E 012°26'3 5.6
2018-Jul-21 17:00N 45°25' E 012°22'3 5.1
2018-Jul-21 16:30N 45°26' E 012°19'0 0.6
2018-Jul-21 15:58N 45°26' E 012°19'0 0.0
2018-Jul-21 15:28N 45°26' E 012°19'0 0.0
2018-Jul-21 14:55N 45°26' E 012°19'0 0.0
2018-Jul-21 14:28N 45°26' E 012°19'0 0.0
2018-Jul-21 13:55N 45°26' E 012°19'0 0.0
2018-Jul-21 13:19N 45°26' E 012°19'0 0.0
2018-Jul-21 12:58N 45°26' E 012°19'0 0.0
2018-Jul-21 12:19N 45°26' E 012°19'0 0.0
2018-Jul-21 11:55N 45°26' E 012°19'0 0.0
2018-Jul-21 11:25N 45°26' E 012°19'0 0.0
2018-Jul-21 10:55N 45°26' E 012°19'0 0.0
2018-Jul-21 09:49N 45°26' E 012°19'0 0.0
2018-Jul-21 09:01N 45°26' E 012°19'0 0.0
2018-Jul-21 08:58N 45°26' E 012°19'0 0.0
2018-Jul-21 08:28N 45°26' E 012°19'0 0.0
2018-Jul-21 07:52N 45°26' E 012°19'0 0.0
2018-Jul-21 07:22N 45°26' E 012°19'0 0.0
2018-Jul-21 06:51N 45°26' E 012°19'1 3.0
2018-Jul-21 06:27N 45°26' E 012°20'2 4.5
2018-Jul-21 06:00N 45°26' E 012°23'4 7.4
2018-Jul-21 05:30N 45°24' E 012°28'610.5
2018-Jul-21 04:57N 45°19' E 012°32'714.9
2018-Jul-21 04:30N 45°14' E 012°37'815.9
2018-Jul-21 04:00N 45°09' E 012°46'815.9
2018-Jul-21 03:30N 45°02' E 012°52'816.5
2018-Jul-21 03:01N 44°55' E 012°57'816.7
2018-Jul-21 02:31N 44°47' E 013°01'916.8
2018-Jul-21 02:00N 44°39' E 013°04'816.6
2018-Jul-21 01:30N 44°31' E 013°08'916.4
2018-Jul-21 00:56N 44°22' E 013°12'1617.3
2018-Jul-20 23:59N 44°11' E 013°28'918.9
2018-Jul-20 23:30N 44°05' E 013°38'1218.8
2018-Jul-20 22:53N 43°58' E 013°51'718.7
2018-Jul-20 22:30N 43°54' E 013°60'918.9
2018-Jul-20 22:01N 43°49' E 014°11'918.8
2018-Jul-20 21:30N 43°43' E 014°21'1019.3
2018-Jul-20 21:00N 43°36' E 014°30'1119.2
2018-Jul-20 20:26N 43°28' E 014°40'58312.1
2018-Jul-18 20:02N 36°35' E 023°37'119.4
2018-Jul-18 20:01N 36°35' E 023°38'1019.4
2018-Jul-18 19:31N 36°39' E 023°49'5919.2
2018-Jul-18 16:28N 37°12' E 024°50'919.7
2018-Jul-18 16:01N 37°17' E 024°59'1019.8
2018-Jul-18 15:31N 37°24' E 025°08'816.4
2018-Jul-18 15:00N 37°28' E 025°17'2 2.8
2018-Jul-18 14:26N 37°28' E 025°19'0 0.0
2018-Jul-18 13:29N 37°28' E 025°19'0 0.0
2018-Jul-18 12:59N 37°28' E 025°19'0 0.0
2018-Jul-18 12:29N 37°28' E 025°19'0 0.0
2018-Jul-18 11:56N 37°28' E 025°19'0 0.0
2018-Jul-18 11:29N 37°28' E 025°19'0 0.0
2018-Jul-18 10:29N 37°28' E 025°19'0 0.0
2018-Jul-18 07:29N 37°28' E 025°19'0 0.0
2018-Jul-18 06:59N 37°28' E 025°19'0 0.0
2018-Jul-18 06:29N 37°28' E 025°19'0 0.0
2018-Jul-18 05:59N 37°28' E 025°19'0 0.0
2018-Jul-18 05:29N 37°28' E 025°19'0 0.0
2018-Jul-18 05:00N 37°28' E 025°19'0 0.1
2018-Jul-18 04:30N 37°28' E 025°19'3 6.4
2018-Jul-18 04:00N 37°28' E 025°15'611.4
2018-Jul-18 03:30N 37°26' E 025°08'712.9
2018-Jul-18 02:58N 37°20' E 025°05'613.0
2018-Jul-18 02:30N 37°14' E 025°02'713.3
2018-Jul-18 02:00N 37°08' E 024°59'2212.5
2018-Jul-18 00:15N 36°47' E 024°51'312.1
2018-Jul-18 00:00N 36°44' E 024°49'712.4
2018-Jul-17 23:25N 36°40' E 024°42'812.1
2018-Jul-17 22:46N 36°32' E 024°41'413.1
2018-Jul-17 22:29N 36°30' E 024°37'613.0
2018-Jul-17 22:00N 36°27' E 024°31'612.2
2018-Jul-17 21:30N 36°21' E 024°32'612.0
2018-Jul-17 21:00N 36°17' E 024°37'611.6
2018-Jul-17 20:30N 36°16' E 024°44'33 3.2
2018-Jul-17 10:14N 36°26' E 025°23'417.4
2018-Jul-17 09:59N 36°29' E 025°19'2617.8
2018-Jul-17 08:31N 36°27' E 024°47'016.6
2018-Jul-17 08:30N 36°27' E 024°46'1816.4
2018-Jul-17 07:25N 36°26' E 024°24'716.5
2018-Jul-17 07:00N 36°26' E 024°16'816.6
2018-Jul-17 06:30N 36°25' E 024°06'816.9
2018-Jul-17 06:00N 36°25' E 023°55'58811.6
2018-Jul-15 03:12N 43°14' E 014°47'1619.7
2018-Jul-15 02:22N 43°26' E 014°31'719.2
2018-Jul-15 02:01N 43°30' E 014°24'1219.3
2018-Jul-15 01:23N 43°38' E 014°11'819.7
2018-Jul-15 00:59N 43°44' E 014°04'1019.8
2018-Jul-15 00:30N 43°51' E 013°54'1719.2
2018-Jul-14 23:36N 44°01' E 013°35'220.1
2018-Jul-14 23:29N 44°02' E 013°32'919.6
2018-Jul-14 23:00N 44°08' E 013°21'918.7
2018-Jul-14 22:30N 44°14' E 013°11'1019.3
2018-Jul-14 22:00N 44°23' E 013°07'1020.2
2018-Jul-14 21:30N 44°32' E 013°03'1019.7
2018-Jul-14 21:00N 44°42' E 012°58'919.0
2018-Jul-14 20:30N 44°50' E 012°53'1019.1
2018-Jul-14 20:00N 44°59' E 012°47'919.0
2018-Jul-14 19:30N 45°07' E 012°40'918.5
2018-Jul-14 19:00N 45°13' E 012°30'815.6
2018-Jul-14 18:30N 45°19' E 012°23'5 9.6
2018-Jul-14 17:59N 45°21' E 012°16'4 8.1
2018-Jul-14 17:30N 45°25' E 012°16'2 4.6
2018-Jul-14 17:00N 45°27' E 012°16'1 1.3
2018-Jul-14 16:28N 45°27' E 012°15'0 0.0
2018-Jul-14 15:52N 45°27' E 012°15'0 0.0
2018-Jul-14 15:28N 45°27' E 012°15'0 0.0
2018-Jul-14 14:58N 45°27' E 012°15'0 0.0
2018-Jul-14 14:28N 45°27' E 012°15'0 0.0
2018-Jul-14 13:28N 45°27' E 012°15'0 0.0
2018-Jul-14 12:58N 45°27' E 012°15'0 0.0
2018-Jul-14 12:22N 45°27' E 012°15'0 0.0
2018-Jul-14 11:55N 45°27' E 012°15'0 0.0
2018-Jul-14 11:22N 45°27' E 012°15'0 0.0
2018-Jul-14 10:58N 45°27' E 012°15'0 0.0
2018-Jul-14 10:28N 45°27' E 012°15'0 0.0
2018-Jul-14 09:58N 45°27' E 012°15'0 0.0
2018-Jul-14 09:28N 45°27' E 012°15'0 0.0
2018-Jul-14 08:55N 45°27' E 012°15'0 0.0
2018-Jul-14 08:25N 45°27' E 012°15'0 0.0
2018-Jul-14 07:58N 45°27' E 012°15'0 0.0
2018-Jul-14 07:25N 45°27' E 012°15'0 0.0
2018-Jul-14 06:55N 45°27' E 012°15'0 0.0
2018-Jul-14 06:28N 45°27' E 012°15'0 0.0
2018-Jul-14 05:58N 45°27' E 012°15'0 0.0
2018-Jul-14 05:22N 45°27' E 012°15'1 1.9
2018-Jul-14 05:00N 45°27' E 012°15'2 4.0
2018-Jul-14 04:30N 45°25' E 012°16'4 7.9
2018-Jul-14 04:00N 45°21' E 012°16'4 8.8
2018-Jul-14 03:30N 45°20' E 012°22'713.4
2018-Jul-14 03:00N 45°17' E 012°31'816.1
2018-Jul-14 02:30N 45°12' E 012°39'815.9
2018-Jul-14 02:01N 45°07' E 012°48'815.6
2018-Jul-14 01:30N 45°01' E 012°54'918.3
2018-Jul-14 01:01N 44°52' E 012°58'918.4
2018-Jul-14 00:30N 44°43' E 013°03'918.0
2018-Jul-14 00:00N 44°35' E 013°07'918.2
2018-Jul-13 23:31N 44°26' E 013°11'918.3
2018-Jul-13 23:01N 44°18' E 013°15'918.3
2018-Jul-13 22:30N 44°12' E 013°26'918.3
2018-Jul-13 22:00N 44°07' E 013°36'918.2
2018-Jul-13 21:29N 44°01' E 013°46'918.2
2018-Jul-13 21:00N 43°56' E 013°56'918.3
2018-Jul-13 20:30N 43°51' E 014°06'918.5
2018-Jul-13 20:00N 43°45' E 014°17'  

Dump ship's entire track history